sensor_id;sensor_type;location;lat;lon;timestamp;P1;durP1;ratioP1;P2;durP2;ratioP2
545;SDS011;259;53.304;9.816;2023-07-22T00:02:21;1.30;;;1.20;;
545;SDS011;259;53.304;9.816;2023-07-22T00:04:48;1.43;;;1.30;;
545;SDS011;259;53.304;9.816;2023-07-22T00:07:17;1.00;;;1.00;;
545;SDS011;259;53.304;9.816;2023-07-22T00:09:43;1.07;;;1.00;;
545;SDS011;259;53.304;9.816;2023-07-22T00:12:08;0.97;;;0.97;;
545;SDS011;259;53.304;9.816;2023-07-22T00:14:38;1.30;;;1.20;;
545;SDS011;259;53.304;9.816;2023-07-22T00:17:05;1.07;;;1.07;;
545;SDS011;259;53.304;9.816;2023-07-22T00:19:31;1.30;;;1.20;;
545;SDS011;259;53.304;9.816;2023-07-22T00:21:56;1.13;;;1.03;;
545;SDS011;259;53.304;9.816;2023-07-22T00:24:22;1.37;;;1.27;;
545;SDS011;259;53.304;9.816;2023-07-22T00:26:48;1.40;;;1.27;;
545;SDS011;259;53.304;9.816;2023-07-22T00:29:14;1.33;;;1.23;;
545;SDS011;259;53.304;9.816;2023-07-22T00:31:41;1.10;;;1.00;;
545;SDS011;259;53.304;9.816;2023-07-22T00:34:07;1.47;;;0.97;;
545;SDS011;259;53.304;9.816;2023-07-22T00:36:33;1.30;;;1.20;;
545;SDS011;259;53.304;9.816;2023-07-22T00:38:59;1.10;;;0.97;;
545;SDS011;259;53.304;9.816;2023-07-22T00:41:26;1.50;;;1.40;;
545;SDS011;259;53.304;9.816;2023-07-22T00:43:52;1.57;;;1.47;;
545;SDS011;259;53.304;9.816;2023-07-22T00:46:18;1.30;;;1.20;;
545;SDS011;259;53.304;9.816;2023-07-22T00:48:43;1.30;;;1.20;;
545;SDS011;259;53.304;9.816;2023-07-22T00:51:10;1.30;;;1.20;;
545;SDS011;259;53.304;9.816;2023-07-22T00:53:36;1.50;;;1.40;;
545;SDS011;259;53.304;9.816;2023-07-22T00:56:01;2.03;;;1.87;;
545;SDS011;259;53.304;9.816;2023-07-22T00:58:27;1.50;;;1.40;;
545;SDS011;259;53.304;9.816;2023-07-22T01:00:53;1.40;;;1.30;;
545;SDS011;259;53.304;9.816;2023-07-22T01:03:19;1.67;;;1.20;;
545;SDS011;259;53.304;9.816;2023-07-22T01:05:45;1.33;;;1.23;;
545;SDS011;259;53.304;9.816;2023-07-22T01:08:13;1.40;;;1.30;;
545;SDS011;259;53.304;9.816;2023-07-22T01:10:39;1.70;;;1.60;;
545;SDS011;259;53.304;9.816;2023-07-22T01:13:05;1.60;;;1.50;;
545;SDS011;259;53.304;9.816;2023-07-22T01:15:31;1.30;;;1.20;;
545;SDS011;259;53.304;9.816;2023-07-22T01:17:57;1.33;;;1.27;;
545;SDS011;259;53.304;9.816;2023-07-22T01:20:26;1.50;;;1.40;;
545;SDS011;259;53.304;9.816;2023-07-22T01:22:54;1.20;;;1.20;;
545;SDS011;259;53.304;9.816;2023-07-22T01:25:21;1.50;;;1.40;;
545;SDS011;259;53.304;9.816;2023-07-22T01:27:47;1.40;;;1.30;;
545;SDS011;259;53.304;9.816;2023-07-22T01:30:14;1.50;;;1.23;;
545;SDS011;259;53.304;9.816;2023-07-22T01:32:40;1.33;;;1.23;;
545;SDS011;259;53.304;9.816;2023-07-22T01:35:06;1.70;;;1.60;;
545;SDS011;259;53.304;9.816;2023-07-22T01:37:33;1.57;;;1.43;;
545;SDS011;259;53.304;9.816;2023-07-22T01:39:59;1.53;;;1.43;;
545;SDS011;259;53.304;9.816;2023-07-22T01:42:25;1.70;;;1.60;;
545;SDS011;259;53.304;9.816;2023-07-22T01:44:52;1.53;;;1.43;;
545;SDS011;259;53.304;9.816;2023-07-22T01:47:18;1.33;;;1.23;;
545;SDS011;259;53.304;9.816;2023-07-22T01:49:43;1.70;;;1.60;;
545;SDS011;259;53.304;9.816;2023-07-22T01:52:10;1.63;;;1.53;;
545;SDS011;259;53.304;9.816;2023-07-22T01:54:35;1.60;;;1.50;;
545;SDS011;259;53.304;9.816;2023-07-22T01:57:01;1.87;;;1.77;;
545;SDS011;259;53.304;9.816;2023-07-22T01:59:27;1.53;;;1.43;;
545;SDS011;259;53.304;9.816;2023-07-22T02:01:52;1.33;;;1.33;;
545;SDS011;259;53.304;9.816;2023-07-22T02:04:18;1.80;;;1.70;;
545;SDS011;259;53.304;9.816;2023-07-22T02:06:44;1.63;;;1.53;;
545;SDS011;259;53.304;9.816;2023-07-22T02:09:09;1.77;;;1.60;;
545;SDS011;259;53.304;9.816;2023-07-22T02:11:38;1.97;;;1.87;;
545;SDS011;259;53.304;9.816;2023-07-22T02:14:04;1.67;;;1.57;;
545;SDS011;259;53.304;9.816;2023-07-22T02:16:33;1.87;;;1.77;;
545;SDS011;259;53.304;9.816;2023-07-22T02:19:00;2.17;;;2.07;;
545;SDS011;259;53.304;9.816;2023-07-22T02:21:25;2.80;;;1.93;;
545;SDS011;259;53.304;9.816;2023-07-22T02:23:51;1.77;;;1.67;;
545;SDS011;259;53.304;9.816;2023-07-22T02:26:17;1.90;;;1.80;;
545;SDS011;259;53.304;9.816;2023-07-22T02:28:42;2.17;;;1.97;;
545;SDS011;259;53.304;9.816;2023-07-22T02:31:08;2.23;;;2.03;;
545;SDS011;259;53.304;9.816;2023-07-22T02:33:34;1.60;;;1.50;;
545;SDS011;259;53.304;9.816;2023-07-22T02:35:59;2.00;;;1.90;;
545;SDS011;259;53.304;9.816;2023-07-22T02:38:25;1.80;;;1.70;;
545;SDS011;259;53.304;9.816;2023-07-22T02:40:51;2.53;;;2.33;;
545;SDS011;259;53.304;9.816;2023-07-22T02:43:17;2.60;;;2.03;;
545;SDS011;259;53.304;9.816;2023-07-22T02:45:42;2.13;;;1.93;;
545;SDS011;259;53.304;9.816;2023-07-22T02:48:09;1.47;;;1.37;;
545;SDS011;259;53.304;9.816;2023-07-22T02:50:34;1.93;;;1.83;;
545;SDS011;259;53.304;9.816;2023-07-22T02:53:01;2.03;;;1.93;;
545;SDS011;259;53.304;9.816;2023-07-22T02:55:27;2.40;;;2.20;;
545;SDS011;259;53.304;9.816;2023-07-22T02:57:53;2.03;;;1.93;;
545;SDS011;259;53.304;9.816;2023-07-22T03:00:19;1.83;;;1.73;;
545;SDS011;259;53.304;9.816;2023-07-22T03:02:51;2.00;;;1.80;;
545;SDS011;259;53.304;9.816;2023-07-22T03:05:19;2.27;;;2.17;;
545;SDS011;259;53.304;9.816;2023-07-22T03:07:46;2.30;;;2.00;;
545;SDS011;259;53.304;9.816;2023-07-22T03:10:11;2.17;;;2.07;;
545;SDS011;259;53.304;9.816;2023-07-22T03:12:37;2.30;;;2.20;;
545;SDS011;259;53.304;9.816;2023-07-22T03:15:03;2.60;;;2.40;;
545;SDS011;259;53.304;9.816;2023-07-22T03:17:33;1.60;;;1.50;;
545;SDS011;259;53.304;9.816;2023-07-22T03:20:00;2.43;;;2.33;;
545;SDS011;259;53.304;9.816;2023-07-22T03:22:29;1.70;;;1.60;;
545;SDS011;259;53.304;9.816;2023-07-22T03:24:55;2.50;;;2.30;;
545;SDS011;259;53.304;9.816;2023-07-22T03:27:20;2.23;;;2.10;;
545;SDS011;259;53.304;9.816;2023-07-22T03:29:46;1.93;;;1.80;;
545;SDS011;259;53.304;9.816;2023-07-22T03:32:12;2.37;;;1.90;;
545;SDS011;259;53.304;9.816;2023-07-22T03:34:37;1.90;;;1.80;;
545;SDS011;259;53.304;9.816;2023-07-22T03:37:03;2.30;;;2.17;;
545;SDS011;259;53.304;9.816;2023-07-22T03:39:29;2.43;;;2.23;;
545;SDS011;259;53.304;9.816;2023-07-22T03:41:54;2.40;;;2.20;;
545;SDS011;259;53.304;9.816;2023-07-22T03:44:20;2.33;;;2.23;;
545;SDS011;259;53.304;9.816;2023-07-22T03:46:46;2.23;;;2.13;;
545;SDS011;259;53.304;9.816;2023-07-22T03:49:11;1.80;;;1.70;;
545;SDS011;259;53.304;9.816;2023-07-22T03:51:37;2.13;;;2.03;;
545;SDS011;259;53.304;9.816;2023-07-22T03:54:03;2.30;;;2.10;;
545;SDS011;259;53.304;9.816;2023-07-22T03:56:28;2.43;;;2.20;;
545;SDS011;259;53.304;9.816;2023-07-22T03:58:54;2.80;;;2.60;;
545;SDS011;259;53.304;9.816;2023-07-22T04:01:20;1.93;;;1.83;;
545;SDS011;259;53.304;9.816;2023-07-22T04:03:45;1.90;;;1.80;;
545;SDS011;259;53.304;9.816;2023-07-22T04:06:11;3.13;;;2.83;;
545;SDS011;259;53.304;9.816;2023-07-22T04:08:37;2.37;;;2.27;;
545;SDS011;259;53.304;9.816;2023-07-22T04:11:02;2.40;;;2.30;;
545;SDS011;259;53.304;9.816;2023-07-22T04:13:28;2.23;;;2.03;;
545;SDS011;259;53.304;9.816;2023-07-22T04:15:54;2.43;;;2.30;;
545;SDS011;259;53.304;9.816;2023-07-22T04:18:20;2.30;;;2.10;;
545;SDS011;259;53.304;9.816;2023-07-22T04:20:46;2.67;;;2.50;;
545;SDS011;259;53.304;9.816;2023-07-22T04:23:15;2.53;;;2.33;;
545;SDS011;259;53.304;9.816;2023-07-22T04:25:41;2.80;;;2.60;;
545;SDS011;259;53.304;9.816;2023-07-22T04:28:08;2.30;;;2.10;;
545;SDS011;259;53.304;9.816;2023-07-22T04:30:37;2.10;;;2.00;;
545;SDS011;259;53.304;9.816;2023-07-22T04:33:04;2.50;;;2.30;;
545;SDS011;259;53.304;9.816;2023-07-22T04:35:33;2.40;;;2.20;;
545;SDS011;259;53.304;9.816;2023-07-22T04:38:03;2.77;;;2.57;;
545;SDS011;259;53.304;9.816;2023-07-22T04:40:29;2.10;;;2.00;;
545;SDS011;259;53.304;9.816;2023-07-22T04:42:55;2.63;;;2.50;;
545;SDS011;259;53.304;9.816;2023-07-22T04:45:22;2.30;;;2.20;;
545;SDS011;259;53.304;9.816;2023-07-22T04:47:51;2.93;;;2.60;;
545;SDS011;259;53.304;9.816;2023-07-22T04:50:17;2.10;;;1.97;;
545;SDS011;259;53.304;9.816;2023-07-22T04:52:46;2.30;;;2.10;;
545;SDS011;259;53.304;9.816;2023-07-22T04:55:13;2.93;;;2.73;;
545;SDS011;259;53.304;9.816;2023-07-22T04:57:39;3.03;;;2.73;;
545;SDS011;259;53.304;9.816;2023-07-22T05:00:06;2.50;;;2.03;;
545;SDS011;259;53.304;9.816;2023-07-22T05:02:44;3.13;;;2.20;;
545;SDS011;259;53.304;9.816;2023-07-22T05:05:14;2.63;;;2.43;;
545;SDS011;259;53.304;9.816;2023-07-22T05:07:43;2.90;;;2.53;;
545;SDS011;259;53.304;9.816;2023-07-22T05:10:10;2.50;;;2.30;;
545;SDS011;259;53.304;9.816;2023-07-22T05:12:40;2.00;;;1.90;;
545;SDS011;259;53.304;9.816;2023-07-22T05:15:07;3.30;;;2.50;;
545;SDS011;259;53.304;9.816;2023-07-22T05:17:35;2.90;;;2.70;;
545;SDS011;259;53.304;9.816;2023-07-22T05:20:01;2.73;;;2.53;;
545;SDS011;259;53.304;9.816;2023-07-22T05:22:28;2.80;;;2.53;;
545;SDS011;259;53.304;9.816;2023-07-22T05:24:54;2.73;;;2.53;;
545;SDS011;259;53.304;9.816;2023-07-22T05:27:20;2.33;;;2.13;;
545;SDS011;259;53.304;9.816;2023-07-22T05:29:46;3.17;;;2.97;;
545;SDS011;259;53.304;9.816;2023-07-22T05:32:12;3.87;;;3.07;;
545;SDS011;259;53.304;9.816;2023-07-22T05:34:38;2.60;;;2.40;;
545;SDS011;259;53.304;9.816;2023-07-22T05:37:04;3.00;;;2.70;;
545;SDS011;259;53.304;9.816;2023-07-22T05:39:30;2.40;;;2.20;;
545;SDS011;259;53.304;9.816;2023-07-22T05:41:55;3.27;;;3.07;;
545;SDS011;259;53.304;9.816;2023-07-22T05:44:21;2.77;;;2.57;;
545;SDS011;259;53.304;9.816;2023-07-22T05:46:47;2.67;;;2.47;;
545;SDS011;259;53.304;9.816;2023-07-22T05:49:12;2.10;;;2.00;;
545;SDS011;259;53.304;9.816;2023-07-22T05:51:38;3.43;;;2.70;;
545;SDS011;259;53.304;9.816;2023-07-22T05:54:04;2.70;;;2.50;;
545;SDS011;259;53.304;9.816;2023-07-22T05:56:30;2.63;;;2.43;;
545;SDS011;259;53.304;9.816;2023-07-22T05:58:56;2.97;;;2.77;;
545;SDS011;259;53.304;9.816;2023-07-22T06:01:23;2.43;;;2.33;;
545;SDS011;259;53.304;9.816;2023-07-22T06:03:49;2.87;;;2.60;;
545;SDS011;259;53.304;9.816;2023-07-22T06:06:15;2.87;;;2.60;;
545;SDS011;259;53.304;9.816;2023-07-22T06:08:41;2.70;;;2.50;;
545;SDS011;259;53.304;9.816;2023-07-22T06:11:07;2.87;;;2.67;;
545;SDS011;259;53.304;9.816;2023-07-22T06:13:33;3.23;;;3.03;;
545;SDS011;259;53.304;9.816;2023-07-22T06:15:58;3.00;;;2.60;;
545;SDS011;259;53.304;9.816;2023-07-22T06:18:24;2.53;;;2.33;;
545;SDS011;259;53.304;9.816;2023-07-22T06:20:50;4.60;;;2.87;;
545;SDS011;259;53.304;9.816;2023-07-22T06:23:16;2.80;;;2.60;;
545;SDS011;259;53.304;9.816;2023-07-22T06:25:42;2.60;;;2.40;;
545;SDS011;259;53.304;9.816;2023-07-22T06:28:08;2.80;;;2.60;;
545;SDS011;259;53.304;9.816;2023-07-22T06:30:34;2.57;;;2.37;;
545;SDS011;259;53.304;9.816;2023-07-22T06:33:00;2.70;;;2.50;;
545;SDS011;259;53.304;9.816;2023-07-22T06:35:25;3.00;;;2.80;;
545;SDS011;259;53.304;9.816;2023-07-22T06:37:51;2.40;;;2.23;;
545;SDS011;259;53.304;9.816;2023-07-22T06:40:17;2.50;;;2.30;;
545;SDS011;259;53.304;9.816;2023-07-22T06:42:43;3.17;;;2.90;;
545;SDS011;259;53.304;9.816;2023-07-22T06:45:08;3.30;;;3.10;;
545;SDS011;259;53.304;9.816;2023-07-22T06:47:35;2.47;;;2.27;;
545;SDS011;259;53.304;9.816;2023-07-22T06:50:01;2.83;;;2.63;;
545;SDS011;259;53.304;9.816;2023-07-22T06:52:29;2.63;;;2.43;;
545;SDS011;259;53.304;9.816;2023-07-22T06:54:56;2.63;;;2.43;;
545;SDS011;259;53.304;9.816;2023-07-22T06:57:21;2.73;;;2.57;;
545;SDS011;259;53.304;9.816;2023-07-22T06:59:47;2.70;;;2.50;;
545;SDS011;259;53.304;9.816;2023-07-22T07:02:15;2.40;;;2.30;;
545;SDS011;259;53.304;9.816;2023-07-22T07:04:41;2.70;;;2.50;;
545;SDS011;259;53.304;9.816;2023-07-22T07:07:07;2.70;;;2.50;;
545;SDS011;259;53.304;9.816;2023-07-22T07:09:32;2.60;;;2.40;;
545;SDS011;259;53.304;9.816;2023-07-22T07:12:00;2.67;;;2.47;;
545;SDS011;259;53.304;9.816;2023-07-22T07:14:26;2.60;;;2.20;;
545;SDS011;259;53.304;9.816;2023-07-22T07:16:52;2.83;;;2.63;;
545;SDS011;259;53.304;9.816;2023-07-22T07:19:17;2.43;;;2.23;;
545;SDS011;259;53.304;9.816;2023-07-22T07:21:43;2.57;;;2.37;;
545;SDS011;259;53.304;9.816;2023-07-22T07:24:09;3.50;;;3.20;;
545;SDS011;259;53.304;9.816;2023-07-22T07:26:35;3.67;;;3.37;;
545;SDS011;259;53.304;9.816;2023-07-22T07:29:00;2.80;;;2.60;;
545;SDS011;259;53.304;9.816;2023-07-22T07:31:26;2.80;;;2.60;;
545;SDS011;259;53.304;9.816;2023-07-22T07:33:52;3.03;;;2.73;;
545;SDS011;259;53.304;9.816;2023-07-22T07:36:18;2.93;;;2.73;;
545;SDS011;259;53.304;9.816;2023-07-22T07:38:43;2.40;;;2.20;;
545;SDS011;259;53.304;9.816;2023-07-22T07:41:09;2.60;;;2.40;;
545;SDS011;259;53.304;9.816;2023-07-22T07:43:41;2.63;;;2.43;;
545;SDS011;259;53.304;9.816;2023-07-22T07:46:20;3.00;;;2.80;;
545;SDS011;259;53.304;9.816;2023-07-22T07:48:51;3.00;;;2.70;;
545;SDS011;259;53.304;9.816;2023-07-22T07:51:22;2.70;;;2.50;;
545;SDS011;259;53.304;9.816;2023-07-22T07:53:51;2.80;;;2.60;;
545;SDS011;259;53.304;9.816;2023-07-22T07:56:17;2.90;;;2.27;;
545;SDS011;259;53.304;9.816;2023-07-22T07:58:45;2.83;;;2.63;;
545;SDS011;259;53.304;9.816;2023-07-22T08:01:13;2.70;;;2.50;;
545;SDS011;259;53.304;9.816;2023-07-22T08:03:40;2.70;;;2.50;;
545;SDS011;259;53.304;9.816;2023-07-22T08:06:07;3.27;;;2.47;;
545;SDS011;259;53.304;9.816;2023-07-22T08:08:34;2.80;;;2.20;;
545;SDS011;259;53.304;9.816;2023-07-22T08:11:02;2.23;;;2.13;;
545;SDS011;259;53.304;9.816;2023-07-22T08:13:30;2.60;;;2.40;;
545;SDS011;259;53.304;9.816;2023-07-22T08:15:58;2.50;;;2.30;;
545;SDS011;259;53.304;9.816;2023-07-22T08:18:26;2.70;;;2.50;;
545;SDS011;259;53.304;9.816;2023-07-22T08:20:52;2.37;;;2.17;;
545;SDS011;259;53.304;9.816;2023-07-22T08:23:19;3.27;;;2.87;;
545;SDS011;259;53.304;9.816;2023-07-22T08:25:45;2.70;;;2.50;;
545;SDS011;259;53.304;9.816;2023-07-22T08:28:11;2.30;;;2.10;;
545;SDS011;259;53.304;9.816;2023-07-22T08:30:36;2.80;;;2.60;;
545;SDS011;259;53.304;9.816;2023-07-22T08:33:05;2.80;;;2.60;;
545;SDS011;259;53.304;9.816;2023-07-22T08:35:33;2.70;;;2.07;;
545;SDS011;259;53.304;9.816;2023-07-22T08:38:00;2.40;;;2.20;;
545;SDS011;259;53.304;9.816;2023-07-22T08:40:27;2.57;;;2.30;;
545;SDS011;259;53.304;9.816;2023-07-22T08:42:58;2.43;;;2.23;;
545;SDS011;259;53.304;9.816;2023-07-22T08:45:26;2.60;;;2.40;;
545;SDS011;259;53.304;9.816;2023-07-22T08:47:57;2.50;;;2.30;;
545;SDS011;259;53.304;9.816;2023-07-22T08:50:26;2.90;;;2.70;;
545;SDS011;259;53.304;9.816;2023-07-22T08:52:59;2.67;;;2.50;;
545;SDS011;259;53.304;9.816;2023-07-22T08:55:26;2.67;;;2.47;;
545;SDS011;259;53.304;9.816;2023-07-22T08:57:52;1.70;;;1.60;;
545;SDS011;259;53.304;9.816;2023-07-22T09:00:18;2.00;;;1.90;;
545;SDS011;259;53.304;9.816;2023-07-22T09:02:44;2.10;;;2.00;;
545;SDS011;259;53.304;9.816;2023-07-22T09:05:11;2.27;;;2.07;;
545;SDS011;259;53.304;9.816;2023-07-22T09:07:37;2.10;;;1.90;;
545;SDS011;259;53.304;9.816;2023-07-22T09:10:06;2.40;;;2.20;;
545;SDS011;259;53.304;9.816;2023-07-22T09:12:34;2.40;;;2.20;;
545;SDS011;259;53.304;9.816;2023-07-22T09:15:14;2.53;;;2.33;;
545;SDS011;259;53.304;9.816;2023-07-22T09:17:40;1.87;;;1.77;;
545;SDS011;259;53.304;9.816;2023-07-22T09:20:06;2.60;;;2.40;;
545;SDS011;259;53.304;9.816;2023-07-22T09:22:33;2.20;;;2.00;;
545;SDS011;259;53.304;9.816;2023-07-22T09:25:16;2.10;;;2.00;;
545;SDS011;259;53.304;9.816;2023-07-22T09:27:50;1.63;;;1.53;;
545;SDS011;259;53.304;9.816;2023-07-22T09:30:21;2.67;;;2.13;;
545;SDS011;259;53.304;9.816;2023-07-22T09:32:51;2.13;;;2.03;;
545;SDS011;259;53.304;9.816;2023-07-22T09:35:20;2.37;;;2.20;;
545;SDS011;259;53.304;9.816;2023-07-22T09:37:47;2.10;;;2.00;;
545;SDS011;259;53.304;9.816;2023-07-22T09:42:46;2.00;;;1.80;;
545;SDS011;259;53.304;9.816;2023-07-22T09:45:23;1.97;;;1.87;;
545;SDS011;259;53.304;9.816;2023-07-22T09:47:50;1.70;;;1.60;;
545;SDS011;259;53.304;9.816;2023-07-22T09:50:19;1.60;;;1.50;;
545;SDS011;259;53.304;9.816;2023-07-22T09:52:52;1.70;;;1.60;;
545;SDS011;259;53.304;9.816;2023-07-22T09:55:21;1.77;;;1.67;;
545;SDS011;259;53.304;9.816;2023-07-22T09:57:54;1.37;;;1.27;;
545;SDS011;259;53.304;9.816;2023-07-22T10:00:31;2.20;;;2.00;;
545;SDS011;259;53.304;9.816;2023-07-22T10:02:59;1.73;;;1.63;;
545;SDS011;259;53.304;9.816;2023-07-22T10:05:27;2.07;;;1.87;;
545;SDS011;259;53.304;9.816;2023-07-22T10:07:56;1.60;;;1.50;;
545;SDS011;259;53.304;9.816;2023-07-22T10:10:26;2.17;;;2.07;;
545;SDS011;259;53.304;9.816;2023-07-22T10:12:57;1.97;;;1.87;;
545;SDS011;259;53.304;9.816;2023-07-22T10:15:24;2.10;;;1.80;;
545;SDS011;259;53.304;9.816;2023-07-22T10:17:54;1.67;;;1.57;;
545;SDS011;259;53.304;9.816;2023-07-22T10:20:21;2.33;;;2.13;;
545;SDS011;259;53.304;9.816;2023-07-22T10:22:48;1.77;;;1.67;;
545;SDS011;259;53.304;9.816;2023-07-22T10:25:15;1.63;;;1.53;;
545;SDS011;259;53.304;9.816;2023-07-22T10:27:46;1.93;;;1.83;;
545;SDS011;259;53.304;9.816;2023-07-22T10:30:14;2.10;;;2.00;;
545;SDS011;259;53.304;9.816;2023-07-22T10:32:43;1.67;;;1.57;;
545;SDS011;259;53.304;9.816;2023-07-22T10:35:17;1.67;;;1.57;;
545;SDS011;259;53.304;9.816;2023-07-22T10:37:55;1.80;;;1.70;;
545;SDS011;259;53.304;9.816;2023-07-22T10:42:53;1.97;;;1.87;;
545;SDS011;259;53.304;9.816;2023-07-22T10:45:24;1.87;;;1.77;;
545;SDS011;259;53.304;9.816;2023-07-22T10:48:08;1.60;;;1.50;;
545;SDS011;259;53.304;9.816;2023-07-22T10:50:43;1.73;;;1.60;;
545;SDS011;259;53.304;9.816;2023-07-22T10:53:27;2.30;;;1.83;;
545;SDS011;259;53.304;9.816;2023-07-22T11:06:57;1.93;;;1.83;;
545;SDS011;259;53.304;9.816;2023-07-22T11:11:52;2.10;;;2.00;;
545;SDS011;259;53.304;9.816;2023-07-22T11:14:22;2.67;;;2.43;;
545;SDS011;259;53.304;9.816;2023-07-22T11:16:50;2.17;;;2.07;;
545;SDS011;259;53.304;9.816;2023-07-22T11:19:17;2.27;;;2.10;;
545;SDS011;259;53.304;9.816;2023-07-22T11:21:45;2.80;;;2.60;;
545;SDS011;259;53.304;9.816;2023-07-22T11:24:12;2.07;;;1.87;;
545;SDS011;259;53.304;9.816;2023-07-22T11:26:39;2.40;;;2.20;;
545;SDS011;259;53.304;9.816;2023-07-22T11:29:08;2.10;;;2.00;;
545;SDS011;259;53.304;9.816;2023-07-22T11:31:35;2.27;;;2.10;;
545;SDS011;259;53.304;9.816;2023-07-22T11:34:08;2.30;;;2.10;;
545;SDS011;259;53.304;9.816;2023-07-22T11:36:35;2.70;;;2.50;;
545;SDS011;259;53.304;9.816;2023-07-22T11:39:04;2.53;;;2.33;;
545;SDS011;259;53.304;9.816;2023-07-22T11:41:35;2.20;;;2.00;;
545;SDS011;259;53.304;9.816;2023-07-22T11:44:02;2.90;;;2.70;;
545;SDS011;259;53.304;9.816;2023-07-22T11:49:38;2.70;;;2.33;;
545;SDS011;259;53.304;9.816;2023-07-22T11:52:16;2.57;;;2.20;;
545;SDS011;259;53.304;9.816;2023-07-22T11:54:43;2.63;;;2.43;;
545;SDS011;259;53.304;9.816;2023-07-22T11:57:23;2.90;;;2.70;;
545;SDS011;259;53.304;9.816;2023-07-22T11:59:52;3.03;;;2.83;;
545;SDS011;259;53.304;9.816;2023-07-22T12:02:21;3.07;;;2.80;;
545;SDS011;259;53.304;9.816;2023-07-22T12:07:25;3.00;;;2.80;;
545;SDS011;259;53.304;9.816;2023-07-22T12:10:03;3.00;;;2.67;;
545;SDS011;259;53.304;9.816;2023-07-22T12:12:31;3.40;;;3.10;;
545;SDS011;259;53.304;9.816;2023-07-22T12:15:17;3.00;;;2.80;;
545;SDS011;259;53.304;9.816;2023-07-22T12:20:27;3.07;;;2.83;;
545;SDS011;259;53.304;9.816;2023-07-22T12:22:58;2.80;;;2.60;;
545;SDS011;259;53.304;9.816;2023-07-22T12:25:24;3.50;;;3.20;;
545;SDS011;259;53.304;9.816;2023-07-22T12:27:50;3.50;;;3.30;;
545;SDS011;259;53.304;9.816;2023-07-22T12:30:16;2.53;;;2.33;;
545;SDS011;259;53.304;9.816;2023-07-22T12:32:42;3.20;;;3.00;;
545;SDS011;259;53.304;9.816;2023-07-22T12:35:08;3.50;;;3.20;;
545;SDS011;259;53.304;9.816;2023-07-22T12:37:34;3.70;;;3.40;;
545;SDS011;259;53.304;9.816;2023-07-22T12:40:01;3.70;;;3.40;;
545;SDS011;259;53.304;9.816;2023-07-22T12:42:29;3.47;;;3.17;;
545;SDS011;259;53.304;9.816;2023-07-22T12:44:55;3.77;;;3.47;;
545;SDS011;259;53.304;9.816;2023-07-22T12:47:21;3.60;;;3.30;;
545;SDS011;259;53.304;9.816;2023-07-22T12:49:46;3.70;;;3.40;;
545;SDS011;259;53.304;9.816;2023-07-22T12:52:12;3.60;;;3.30;;
545;SDS011;259;53.304;9.816;2023-07-22T12:54:38;3.60;;;3.30;;
545;SDS011;259;53.304;9.816;2023-07-22T12:57:04;3.30;;;3.10;;
545;SDS011;259;53.304;9.816;2023-07-22T12:59:30;3.53;;;3.23;;
545;SDS011;259;53.304;9.816;2023-07-22T13:01:56;3.80;;;3.50;;
545;SDS011;259;53.304;9.816;2023-07-22T13:04:23;3.70;;;3.40;;
545;SDS011;259;53.304;9.816;2023-07-22T13:06:49;3.30;;;3.10;;
545;SDS011;259;53.304;9.816;2023-07-22T13:09:16;3.27;;;2.97;;
545;SDS011;259;53.304;9.816;2023-07-22T13:11:43;4.30;;;3.93;;
545;SDS011;259;53.304;9.816;2023-07-22T13:14:09;3.93;;;3.30;;
545;SDS011;259;53.304;9.816;2023-07-22T13:16:34;2.87;;;2.67;;
545;SDS011;259;53.304;9.816;2023-07-22T13:19:00;3.17;;;2.87;;
545;SDS011;259;53.304;9.816;2023-07-22T13:21:28;3.83;;;3.50;;
545;SDS011;259;53.304;9.816;2023-07-22T13:23:54;3.40;;;3.13;;
545;SDS011;259;53.304;9.816;2023-07-22T13:26:20;4.00;;;3.70;;
545;SDS011;259;53.304;9.816;2023-07-22T13:28:46;4.10;;;3.50;;
545;SDS011;259;53.304;9.816;2023-07-22T13:31:12;3.37;;;3.17;;
545;SDS011;259;53.304;9.816;2023-07-22T13:33:37;3.80;;;3.50;;
545;SDS011;259;53.304;9.816;2023-07-22T13:36:03;3.70;;;3.40;;
545;SDS011;259;53.304;9.816;2023-07-22T13:38:29;3.23;;;3.03;;
545;SDS011;259;53.304;9.816;2023-07-22T13:40:54;3.37;;;3.07;;
545;SDS011;259;53.304;9.816;2023-07-22T13:43:20;3.80;;;3.37;;
545;SDS011;259;53.304;9.816;2023-07-22T13:45:46;3.80;;;3.50;;
545;SDS011;259;53.304;9.816;2023-07-22T13:48:12;3.40;;;3.10;;
545;SDS011;259;53.304;9.816;2023-07-22T13:50:37;3.10;;;2.90;;
545;SDS011;259;53.304;9.816;2023-07-22T13:53:03;4.17;;;3.80;;
545;SDS011;259;53.304;9.816;2023-07-22T13:55:29;3.47;;;3.23;;
545;SDS011;259;53.304;9.816;2023-07-22T13:57:54;3.23;;;2.97;;
545;SDS011;259;53.304;9.816;2023-07-22T14:00:20;3.20;;;3.00;;
545;SDS011;259;53.304;9.816;2023-07-22T14:02:46;3.70;;;3.40;;
545;SDS011;259;53.304;9.816;2023-07-22T14:05:11;3.73;;;3.43;;
545;SDS011;259;53.304;9.816;2023-07-22T14:07:37;3.87;;;3.57;;
545;SDS011;259;53.304;9.816;2023-07-22T14:10:04;3.50;;;3.20;;
545;SDS011;259;53.304;9.816;2023-07-22T14:12:31;3.13;;;2.93;;
545;SDS011;259;53.304;9.816;2023-07-22T14:14:56;3.80;;;3.50;;
545;SDS011;259;53.304;9.816;2023-07-22T14:17:22;3.47;;;3.20;;
545;SDS011;259;53.304;9.816;2023-07-22T14:19:47;4.27;;;3.87;;
545;SDS011;259;53.304;9.816;2023-07-22T14:22:13;3.63;;;3.40;;
545;SDS011;259;53.304;9.816;2023-07-22T14:24:39;3.73;;;3.43;;
545;SDS011;259;53.304;9.816;2023-07-22T14:27:05;4.23;;;3.93;;
545;SDS011;259;53.304;9.816;2023-07-22T14:29:31;3.80;;;3.50;;
545;SDS011;259;53.304;9.816;2023-07-22T14:31:57;3.53;;;3.23;;
545;SDS011;259;53.304;9.816;2023-07-22T14:34:23;3.43;;;3.17;;
545;SDS011;259;53.304;9.816;2023-07-22T14:36:48;3.30;;;3.10;;
545;SDS011;259;53.304;9.816;2023-07-22T14:39:15;3.57;;;3.27;;
545;SDS011;259;53.304;9.816;2023-07-22T14:41:41;3.90;;;3.60;;
545;SDS011;259;53.304;9.816;2023-07-22T14:44:10;3.50;;;3.20;;
545;SDS011;259;53.304;9.816;2023-07-22T14:46:36;2.93;;;2.73;;
545;SDS011;259;53.304;9.816;2023-07-22T14:49:01;3.33;;;3.07;;
545;SDS011;259;53.304;9.816;2023-07-22T14:51:29;3.60;;;3.40;;
545;SDS011;259;53.304;9.816;2023-07-22T14:53:55;3.57;;;3.37;;
545;SDS011;259;53.304;9.816;2023-07-22T14:56:20;3.70;;;3.40;;
545;SDS011;259;53.304;9.816;2023-07-22T14:58:46;3.30;;;3.10;;
545;SDS011;259;53.304;9.816;2023-07-22T15:01:14;3.33;;;3.03;;
545;SDS011;259;53.304;9.816;2023-07-22T15:03:40;3.23;;;3.00;;
545;SDS011;259;53.304;9.816;2023-07-22T15:06:05;4.20;;;3.80;;
545;SDS011;259;53.304;9.816;2023-07-22T15:08:31;4.00;;;3.70;;
545;SDS011;259;53.304;9.816;2023-07-22T15:10:57;3.27;;;3.07;;
545;SDS011;259;53.304;9.816;2023-07-22T15:13:23;3.77;;;3.40;;
545;SDS011;259;53.304;9.816;2023-07-22T15:15:49;3.93;;;3.67;;
545;SDS011;259;53.304;9.816;2023-07-22T15:18:15;3.57;;;3.27;;
545;SDS011;259;53.304;9.816;2023-07-22T15:20:42;3.63;;;3.43;;
545;SDS011;259;53.304;9.816;2023-07-22T15:23:08;3.10;;;2.90;;
545;SDS011;259;53.304;9.816;2023-07-22T15:25:33;3.23;;;3.03;;
545;SDS011;259;53.304;9.816;2023-07-22T15:27:59;3.40;;;3.20;;
545;SDS011;259;53.304;9.816;2023-07-22T15:30:25;3.50;;;3.20;;
545;SDS011;259;53.304;9.816;2023-07-22T15:32:50;3.23;;;2.97;;
545;SDS011;259;53.304;9.816;2023-07-22T15:35:16;2.77;;;2.57;;
545;SDS011;259;53.304;9.816;2023-07-22T15:37:42;3.30;;;3.00;;
545;SDS011;259;53.304;9.816;2023-07-22T15:40:08;3.20;;;3.00;;
545;SDS011;259;53.304;9.816;2023-07-22T15:42:35;3.40;;;3.13;;
545;SDS011;259;53.304;9.816;2023-07-22T15:45:00;3.10;;;2.90;;
545;SDS011;259;53.304;9.816;2023-07-22T15:47:26;3.00;;;2.80;;
545;SDS011;259;53.304;9.816;2023-07-22T15:49:52;3.00;;;2.80;;
545;SDS011;259;53.304;9.816;2023-07-22T15:52:18;3.43;;;3.23;;
545;SDS011;259;53.304;9.816;2023-07-22T15:54:44;3.53;;;3.23;;
545;SDS011;259;53.304;9.816;2023-07-22T15:57:09;3.30;;;3.10;;
545;SDS011;259;53.304;9.816;2023-07-22T15:59:35;3.30;;;3.10;;
545;SDS011;259;53.304;9.816;2023-07-22T16:02:01;3.03;;;2.83;;
545;SDS011;259;53.304;9.816;2023-07-22T16:04:27;3.47;;;3.27;;
545;SDS011;259;53.304;9.816;2023-07-22T16:06:52;3.40;;;3.20;;
545;SDS011;259;53.304;9.816;2023-07-22T16:09:18;3.40;;;3.20;;
545;SDS011;259;53.304;9.816;2023-07-22T16:11:44;3.10;;;2.90;;